ADDS METAR Data INFO
IDs: Format: Raw Decoded Include TAF

Data at: 0807 UTC 24 May 2018

KBRO 240753Z AUTO 00000KT 10SM CLR 25/24 A2998 RMK AO2 SLP150 T02500244
KBRO 240653Z AUTO 00000KT 10SM CLR 25/24 A2998 RMK AO2 SLP151 T02500239
KBRO 240553Z AUTO 12004KT 10SM CLR 26/24 A2999 RMK AO2 SLP152 T02610244 10300 20261 403390239 50006
KBRO 240453Z AUTO 12006KT 10SM CLR 27/25 A2999 RMK AO2 SLP153 T02670250
KBRO 240353Z 11006KT 10SM CLR 27/24 A2998 RMK AO2 SLP151 T02670244
KBRO 240253Z 11006KT 10SM CLR 27/24 A2997 RMK AO2 SLP147 T02720244 51014
KBRO 240153Z 11008KT 10SM CLR 28/24 A2996 RMK AO2 SLP143 T02780239
KBRO 240053Z 11010KT 10SM FEW024 29/23 A2994 RMK AO2 SLP137 T02890233
KBRO 232353Z 13011KT 10SM CLR 30/23 A2993 RMK AO2 SLP132 T03000228 10339 20300 50000
KBRO 232253Z 12012KT 10SM FEW032 31/23 A2993 RMK AO2 SLP134 T03110228
KBRO 232153Z 12014G18KT 10SM SCT034 32/23 A2993 RMK AO2 SLP134 T03220233
KBRO 232053Z 12015G20KT 10SM SCT036 33/23 A2993 RMK AO2 SLP132 T03330233 58009
KBRO 231953Z 12013G19KT 10SM FEW039 BKN050 33/23 A2994 RMK AO2 SLP136 T03330233
KBRO 231853Z 13012KT 10SM SCT040 BKN050 33/22 A2994 RMK AO2 SLP138 T03330222
KBRO 231753Z 13011KT 10SM SCT042 BKN048 33/23 A2995 RMK AO2 SLP141 60009 T03280228 10333 20244 58008
KBRO 231653Z 11011KT 10SM SCT035 32/24 A2996 RMK AO2 SLP145 T03170239
KBRO 231553Z 00000KT 10SM SCT037 BKN050 BKN060 28/25 A2998 RMK AO2 RAB09E46 SLP151 P0009 T02780250
KBRO 231453Z 16007KT 10SM FEW021 FEW025 SCT035 29/23 A2998 RMK AO2 SLP150 T02890228 51013
KBRO 231353Z 15007KT 10SM FEW015 28/24 A2997 RMK AO2 SLP146 T02830244
KBRO 231253Z 09003KT 10SM CLR 27/25 A2996 RMK AO2 SLP143 T02670250
KBRO 231153Z 09003KT 10SM CLR 24/23 A2994 RMK AO2 SLP136 T02440233 10256 20239 53006
KBRO 231053Z 11003KT 10SM CLR 24/23 A2993 RMK AO2 SLP133 T02440233
KBRO 230953Z AUTO 10003KT 10SM CLR 25/24 A2992 RMK AO2 SLP131 T02500239
KBRO 230853Z AUTO 10004KT 10SM CLR 24/23 A2992 RMK AO2 SLP130 T02440233 58006
KBRO 230753Z AUTO 11003KT 10SM CLR 25/24 A2993 RMK AO2 SLP134 T02500239
KBRO 230653Z AUTO 11004KT 10SM FEW017 FEW023 25/24 A2993 RMK AO2 SLP135 T02500239
KBRO 230553Z AUTO 11004KT 10SM FEW020 26/23 A2994 RMK AO2 SLP137 T02560233 10294 20250 403390239 51004
KBRO 230453Z AUTO 10005KT 10SM CLR 26/23 A2994 RMK AO2 SLP137 T02560233
KBRO 230353Z 12004KT 10SM CLR 26/23 A2994 RMK AO2 SLP136 T02610233
KBRO 230253Z 13004KT 10SM FEW022 27/24 A2993 RMK AO2 SLP133 T02670239 53013
KBRO 230216Z 11004KT 10SM SCT020 SCT029 27/24 A2991 RMK AO2 T02720239
KBRO 230153Z 11007KT 10SM SCT021 BKN029 28/23 A2990 RMK AO2 SLP125 T02830233
KBRO 230053Z 11009KT 10SM CLR 28/22 A2990 RMK AO2 SLP123 T02830222
KBRO 222353Z 11011KT 10SM FEW029 29/22 A2989 RMK AO2 SLP120 T02940217 10339 20294 55005
KBRO 222253Z 12011KT 10SM FEW030 30/22 A2989 RMK AO2 SLP119 T03000222
KBRO 222153Z 11011KT 10SM SCT037 32/22 A2988 RMK AO2 SLP118 T03170222
KBRO 222053Z 11012G19KT 10SM CLR 33/22 A2990 RMK AO2 SLP124 T03330217 58017